Terminal Aerodrome Forecast
Issued by NWS Grand Forks, ND

Home | Current Version | Previous Version | Graphics & Text | Print | Product List | Glossary On
Versions: 1 2 3 4 5 6 7 8 9 10 11 12 13 14 15 16 17 18
573
FTUS43 KFGF 232030 AAA
TAFFAR
TAF AMD
KFAR 232030Z 2321/2418 06014KT P6SM OVC035
     FM240000 07013G21KT P6SM BKN035
     FM241000 10010KT P6SM BKN110=

USA.gov is the U.S. government's official web portal to all federal, state and local government web resources and services.